sensor_id;sensor_type;location;lat;lon;timestamp;P1;durP1;ratioP1;P2;durP2;ratioP2
80510;SDS011;69840;53.040;8.600;2023-08-07T00:03:50;4.47;;;2.28;;
80510;SDS011;69840;53.040;8.600;2023-08-07T00:08:03;3.45;;;2.13;;
80510;SDS011;69840;53.040;8.600;2023-08-07T00:12:16;5.05;;;2.17;;
80510;SDS011;69840;53.040;8.600;2023-08-07T00:16:29;3.22;;;2.05;;
80510;SDS011;69840;53.040;8.600;2023-08-07T00:20:42;6.57;;;3.10;;
80510;SDS011;69840;53.040;8.600;2023-08-07T00:24:54;5.70;;;2.28;;
80510;SDS011;69840;53.040;8.600;2023-08-07T00:29:07;7.30;;;3.03;;
80510;SDS011;69840;53.040;8.600;2023-08-07T00:33:19;4.55;;;2.72;;
80510;SDS011;69840;53.040;8.600;2023-08-07T00:37:32;4.65;;;2.42;;
80510;SDS011;69840;53.040;8.600;2023-08-07T00:41:46;7.38;;;3.08;;
80510;SDS011;69840;53.040;8.600;2023-08-07T00:45:59;6.18;;;2.88;;
80510;SDS011;69840;53.040;8.600;2023-08-07T00:50:12;4.53;;;3.22;;
80510;SDS011;69840;53.040;8.600;2023-08-07T00:54:24;10.68;;;3.67;;
80510;SDS011;69840;53.040;8.600;2023-08-07T00:58:37;4.80;;;3.08;;
80510;SDS011;69840;53.040;8.600;2023-08-07T01:02:51;5.57;;;3.50;;
80510;SDS011;69840;53.040;8.600;2023-08-07T01:07:06;4.18;;;2.38;;
80510;SDS011;69840;53.040;8.600;2023-08-07T01:11:32;6.88;;;3.38;;
80510;SDS011;69840;53.040;8.600;2023-08-07T01:15:52;9.43;;;3.08;;
80510;SDS011;69840;53.040;8.600;2023-08-07T01:20:10;8.38;;;3.72;;
80510;SDS011;69840;53.040;8.600;2023-08-07T01:24:23;6.28;;;3.42;;
80510;SDS011;69840;53.040;8.600;2023-08-07T01:28:40;8.20;;;3.30;;
80510;SDS011;69840;53.040;8.600;2023-08-07T01:33:12;6.55;;;4.45;;
80510;SDS011;69840;53.040;8.600;2023-08-07T01:37:30;8.10;;;3.90;;
80510;SDS011;69840;53.040;8.600;2023-08-07T01:41:44;6.38;;;3.30;;
80510;SDS011;69840;53.040;8.600;2023-08-07T01:45:57;5.78;;;2.53;;
80510;SDS011;69840;53.040;8.600;2023-08-07T01:50:10;6.68;;;3.00;;
80510;SDS011;69840;53.040;8.600;2023-08-07T01:54:22;8.60;;;3.60;;
80510;SDS011;69840;53.040;8.600;2023-08-07T01:58:35;5.57;;;3.08;;
80510;SDS011;69840;53.040;8.600;2023-08-07T02:02:47;10.05;;;3.85;;
80510;SDS011;69840;53.040;8.600;2023-08-07T02:07:00;7.05;;;3.88;;
80510;SDS011;69840;53.040;8.600;2023-08-07T02:11:13;6.97;;;3.65;;
80510;SDS011;69840;53.040;8.600;2023-08-07T02:15:25;10.77;;;4.80;;
80510;SDS011;69840;53.040;8.600;2023-08-07T02:19:38;6.28;;;3.85;;
80510;SDS011;69840;53.040;8.600;2023-08-07T02:23:50;5.43;;;3.58;;
80510;SDS011;69840;53.040;8.600;2023-08-07T02:28:03;6.55;;;3.03;;
80510;SDS011;69840;53.040;8.600;2023-08-07T02:32:17;7.57;;;3.75;;
80510;SDS011;69840;53.040;8.600;2023-08-07T02:36:30;4.65;;;2.97;;
80510;SDS011;69840;53.040;8.600;2023-08-07T02:40:43;7.72;;;3.45;;
80510;SDS011;69840;53.040;8.600;2023-08-07T02:44:55;7.07;;;3.83;;
80510;SDS011;69840;53.040;8.600;2023-08-07T02:49:08;7.45;;;4.35;;
80510;SDS011;69840;53.040;8.600;2023-08-07T02:53:21;10.30;;;4.88;;
80510;SDS011;69840;53.040;8.600;2023-08-07T02:57:34;6.80;;;3.30;;
80510;SDS011;69840;53.040;8.600;2023-08-07T03:01:46;7.40;;;4.18;;
80510;SDS011;69840;53.040;8.600;2023-08-07T03:05:59;8.27;;;4.28;;
80510;SDS011;69840;53.040;8.600;2023-08-07T03:10:12;6.22;;;4.13;;
80510;SDS011;69840;53.040;8.600;2023-08-07T03:14:25;9.27;;;3.95;;
80510;SDS011;69840;53.040;8.600;2023-08-07T03:18:37;9.27;;;3.97;;
80510;SDS011;69840;53.040;8.600;2023-08-07T03:22:50;6.55;;;3.95;;
80510;SDS011;69840;53.040;8.600;2023-08-07T03:27:02;9.57;;;3.33;;
80510;SDS011;69840;53.040;8.600;2023-08-07T03:31:15;7.15;;;3.28;;
80510;SDS011;69840;53.040;8.600;2023-08-07T03:35:28;5.82;;;3.55;;
80510;SDS011;69840;53.040;8.600;2023-08-07T03:39:41;6.40;;;2.47;;
80510;SDS011;69840;53.040;8.600;2023-08-07T03:43:54;5.97;;;3.10;;
80510;SDS011;69840;53.040;8.600;2023-08-07T03:48:07;8.05;;;3.22;;
80510;SDS011;69840;53.040;8.600;2023-08-07T03:52:20;7.15;;;3.50;;
80510;SDS011;69840;53.040;8.600;2023-08-07T03:56:33;6.63;;;3.50;;
80510;SDS011;69840;53.040;8.600;2023-08-07T04:00:46;6.53;;;3.75;;
80510;SDS011;69840;53.040;8.600;2023-08-07T04:04:59;10.65;;;4.65;;
80510;SDS011;69840;53.040;8.600;2023-08-07T04:09:11;10.35;;;3.75;;
80510;SDS011;69840;53.040;8.600;2023-08-07T04:13:24;5.25;;;3.22;;
80510;SDS011;69840;53.040;8.600;2023-08-07T04:17:36;5.57;;;2.90;;
80510;SDS011;69840;53.040;8.600;2023-08-07T04:21:49;9.95;;;4.18;;
80510;SDS011;69840;53.040;8.600;2023-08-07T04:26:02;6.25;;;3.72;;
80510;SDS011;69840;53.040;8.600;2023-08-07T04:30:15;6.72;;;3.22;;
80510;SDS011;69840;53.040;8.600;2023-08-07T04:34:28;7.13;;;3.15;;
80510;SDS011;69840;53.040;8.600;2023-08-07T04:38:40;4.88;;;2.38;;
80510;SDS011;69840;53.040;8.600;2023-08-07T04:42:53;4.97;;;2.58;;
80510;SDS011;69840;53.040;8.600;2023-08-07T04:47:05;3.05;;;2.00;;
80510;SDS011;69840;53.040;8.600;2023-08-07T04:51:18;5.15;;;2.25;;
80510;SDS011;69840;53.040;8.600;2023-08-07T04:55:31;6.82;;;2.28;;
80510;SDS011;69840;53.040;8.600;2023-08-07T04:59:43;5.70;;;1.92;;
80510;SDS011;69840;53.040;8.600;2023-08-07T05:03:56;2.30;;;1.55;;
80510;SDS011;69840;53.040;8.600;2023-08-07T05:08:08;4.40;;;1.50;;
80510;SDS011;69840;53.040;8.600;2023-08-07T05:12:21;2.85;;;1.10;;
80510;SDS011;69840;53.040;8.600;2023-08-07T05:16:33;2.45;;;1.77;;
80510;SDS011;69840;53.040;8.600;2023-08-07T05:20:46;2.90;;;1.23;;
80510;SDS011;69840;53.040;8.600;2023-08-07T05:24:58;5.55;;;1.73;;
80510;SDS011;69840;53.040;8.600;2023-08-07T05:29:12;4.18;;;1.25;;
80510;SDS011;69840;53.040;8.600;2023-08-07T05:33:24;4.75;;;1.67;;
80510;SDS011;69840;53.040;8.600;2023-08-07T05:37:37;3.22;;;0.98;;
80510;SDS011;69840;53.040;8.600;2023-08-07T05:41:49;2.10;;;1.13;;
80510;SDS011;69840;53.040;8.600;2023-08-07T05:46:02;2.25;;;1.17;;
80510;SDS011;69840;53.040;8.600;2023-08-07T05:50:15;2.53;;;1.23;;
80510;SDS011;69840;53.040;8.600;2023-08-07T05:54:27;3.60;;;1.30;;
80510;SDS011;69840;53.040;8.600;2023-08-07T05:58:40;4.10;;;1.40;;
80510;SDS011;69840;53.040;8.600;2023-08-07T06:02:52;3.45;;;1.58;;
80510;SDS011;69840;53.040;8.600;2023-08-07T06:07:05;4.68;;;1.23;;
80510;SDS011;69840;53.040;8.600;2023-08-07T06:11:17;3.05;;;1.40;;
80510;SDS011;69840;53.040;8.600;2023-08-07T06:15:31;4.28;;;1.58;;
80510;SDS011;69840;53.040;8.600;2023-08-07T06:19:44;7.47;;;1.85;;
80510;SDS011;69840;53.040;8.600;2023-08-07T06:23:57;4.55;;;1.50;;
80510;SDS011;69840;53.040;8.600;2023-08-07T06:28:09;4.60;;;1.60;;
80510;SDS011;69840;53.040;8.600;2023-08-07T06:32:22;3.70;;;1.90;;
80510;SDS011;69840;53.040;8.600;2023-08-07T06:36:34;3.67;;;1.25;;
80510;SDS011;69840;53.040;8.600;2023-08-07T06:40:47;4.10;;;1.70;;
80510;SDS011;69840;53.040;8.600;2023-08-07T06:44:59;6.20;;;1.42;;
80510;SDS011;69840;53.040;8.600;2023-08-07T06:49:12;3.83;;;1.35;;
80510;SDS011;69840;53.040;8.600;2023-08-07T06:53:24;3.33;;;1.30;;
80510;SDS011;69840;53.040;8.600;2023-08-07T06:57:37;4.35;;;1.42;;
80510;SDS011;69840;53.040;8.600;2023-08-07T07:01:49;2.20;;;1.27;;
80510;SDS011;69840;53.040;8.600;2023-08-07T07:06:02;3.38;;;1.33;;
80510;SDS011;69840;53.040;8.600;2023-08-07T07:10:14;5.88;;;1.52;;
80510;SDS011;69840;53.040;8.600;2023-08-07T07:14:27;5.25;;;1.63;;
80510;SDS011;69840;53.040;8.600;2023-08-07T07:18:39;6.82;;;1.73;;
80510;SDS011;69840;53.040;8.600;2023-08-07T07:22:52;2.20;;;1.20;;
80510;SDS011;69840;53.040;8.600;2023-08-07T07:27:05;5.07;;;1.70;;
80510;SDS011;69840;53.040;8.600;2023-08-07T07:31:17;13.13;;;2.10;;
80510;SDS011;69840;53.040;8.600;2023-08-07T07:35:30;4.72;;;2.25;;
80510;SDS011;69840;53.040;8.600;2023-08-07T07:39:43;6.28;;;1.90;;
80510;SDS011;69840;53.040;8.600;2023-08-07T07:43:55;10.38;;;1.30;;
80510;SDS011;69840;53.040;8.600;2023-08-07T07:48:08;8.52;;;1.80;;
80510;SDS011;69840;53.040;8.600;2023-08-07T07:52:20;6.57;;;2.03;;
80510;SDS011;69840;53.040;8.600;2023-08-07T07:56:33;5.00;;;1.70;;
80510;SDS011;69840;53.040;8.600;2023-08-07T08:00:46;6.30;;;1.27;;
80510;SDS011;69840;53.040;8.600;2023-08-07T08:04:59;8.30;;;1.98;;
80510;SDS011;69840;53.040;8.600;2023-08-07T08:09:11;6.75;;;2.00;;
80510;SDS011;69840;53.040;8.600;2023-08-07T08:13:24;6.13;;;1.80;;
80510;SDS011;69840;53.040;8.600;2023-08-07T08:17:36;11.77;;;2.40;;
80510;SDS011;69840;53.040;8.600;2023-08-07T08:21:48;4.47;;;1.60;;
80510;SDS011;69840;53.040;8.600;2023-08-07T08:26:01;6.30;;;1.50;;
80510;SDS011;69840;53.040;8.600;2023-08-07T08:30:14;8.38;;;1.30;;
80510;SDS011;69840;53.040;8.600;2023-08-07T08:34:26;4.65;;;1.90;;
80510;SDS011;69840;53.040;8.600;2023-08-07T08:38:39;6.93;;;1.60;;
80510;SDS011;69840;53.040;8.600;2023-08-07T08:42:52;7.50;;;1.30;;
80510;SDS011;69840;53.040;8.600;2023-08-07T08:47:07;5.70;;;1.10;;
80510;SDS011;69840;53.040;8.600;2023-08-07T08:51:21;5.68;;;1.83;;
80510;SDS011;69840;53.040;8.600;2023-08-07T08:55:34;3.95;;;1.90;;
80510;SDS011;69840;53.040;8.600;2023-08-07T08:59:48;6.15;;;1.67;;
80510;SDS011;69840;53.040;8.600;2023-08-07T09:04:02;2.75;;;0.65;;
80510;SDS011;69840;53.040;8.600;2023-08-07T09:08:15;3.58;;;0.95;;
80510;SDS011;69840;53.040;8.600;2023-08-07T09:12:29;12.18;;;1.77;;
80510;SDS011;69840;53.040;8.600;2023-08-07T09:16:45;5.00;;;1.27;;
80510;SDS011;69840;53.040;8.600;2023-08-07T09:21:00;4.97;;;1.92;;
80510;SDS011;69840;53.040;8.600;2023-08-07T09:25:13;3.38;;;1.30;;
80510;SDS011;69840;53.040;8.600;2023-08-07T09:29:26;7.60;;;1.60;;
80510;SDS011;69840;53.040;8.600;2023-08-07T09:33:39;5.03;;;1.63;;
80510;SDS011;69840;53.040;8.600;2023-08-07T09:37:51;7.05;;;1.42;;
80510;SDS011;69840;53.040;8.600;2023-08-07T09:42:04;6.30;;;1.55;;
80510;SDS011;69840;53.040;8.600;2023-08-07T09:46:17;5.55;;;1.13;;
80510;SDS011;69840;53.040;8.600;2023-08-07T09:50:30;6.88;;;2.03;;
80510;SDS011;69840;53.040;8.600;2023-08-07T09:54:42;5.85;;;1.70;;
80510;SDS011;69840;53.040;8.600;2023-08-07T09:58:55;6.45;;;1.75;;
80510;SDS011;69840;53.040;8.600;2023-08-07T10:03:07;3.58;;;1.27;;
80510;SDS011;69840;53.040;8.600;2023-08-07T10:07:23;5.40;;;1.23;;
80510;SDS011;69840;53.040;8.600;2023-08-07T10:11:37;6.45;;;1.10;;
80510;SDS011;69840;53.040;8.600;2023-08-07T10:15:50;5.70;;;1.45;;
80510;SDS011;69840;53.040;8.600;2023-08-07T10:20:04;4.82;;;1.45;;
80510;SDS011;69840;53.040;8.600;2023-08-07T10:24:17;2.10;;;0.80;;
80510;SDS011;69840;53.040;8.600;2023-08-07T10:28:30;6.55;;;1.05;;
80510;SDS011;69840;53.040;8.600;2023-08-07T10:32:45;4.07;;;1.45;;
80510;SDS011;69840;53.040;8.600;2023-08-07T10:36:58;3.17;;;1.13;;
80510;SDS011;69840;53.040;8.600;2023-08-07T10:41:13;3.20;;;1.25;;
80510;SDS011;69840;53.040;8.600;2023-08-07T10:45:27;5.45;;;1.27;;
80510;SDS011;69840;53.040;8.600;2023-08-07T10:49:40;4.75;;;1.02;;
80510;SDS011;69840;53.040;8.600;2023-08-07T10:53:53;2.40;;;1.13;;
80510;SDS011;69840;53.040;8.600;2023-08-07T10:58:06;4.43;;;1.38;;
80510;SDS011;69840;53.040;8.600;2023-08-07T11:02:33;3.47;;;1.30;;
80510;SDS011;69840;53.040;8.600;2023-08-07T11:06:50;7.25;;;1.67;;
80510;SDS011;69840;53.040;8.600;2023-08-07T11:11:05;5.68;;;1.48;;
80510;SDS011;69840;53.040;8.600;2023-08-07T11:15:18;3.58;;;1.25;;
80510;SDS011;69840;53.040;8.600;2023-08-07T11:19:31;3.17;;;1.45;;
80510;SDS011;69840;53.040;8.600;2023-08-07T11:23:44;8.13;;;1.23;;
80510;SDS011;69840;53.040;8.600;2023-08-07T11:27:56;5.50;;;1.45;;
80510;SDS011;69840;53.040;8.600;2023-08-07T11:32:09;3.40;;;1.13;;
80510;SDS011;69840;53.040;8.600;2023-08-07T11:36:22;5.88;;;1.42;;
80510;SDS011;69840;53.040;8.600;2023-08-07T11:40:35;2.88;;;0.75;;
80510;SDS011;69840;53.040;8.600;2023-08-07T11:44:47;3.72;;;1.27;;
80510;SDS011;69840;53.040;8.600;2023-08-07T11:49:00;6.30;;;1.13;;
80510;SDS011;69840;53.040;8.600;2023-08-07T11:53:13;8.10;;;2.13;;
80510;SDS011;69840;53.040;8.600;2023-08-07T11:57:25;5.32;;;1.10;;
80510;SDS011;69840;53.040;8.600;2023-08-07T12:01:38;4.78;;;1.27;;
80510;SDS011;69840;53.040;8.600;2023-08-07T12:05:51;4.40;;;1.38;;
80510;SDS011;69840;53.040;8.600;2023-08-07T12:10:06;7.45;;;1.25;;
80510;SDS011;69840;53.040;8.600;2023-08-07T12:14:19;6.78;;;1.15;;
80510;SDS011;69840;53.040;8.600;2023-08-07T12:18:32;2.83;;;1.00;;
80510;SDS011;69840;53.040;8.600;2023-08-07T12:22:44;6.30;;;1.67;;
80510;SDS011;69840;53.040;8.600;2023-08-07T12:26:58;8.20;;;1.08;;
80510;SDS011;69840;53.040;8.600;2023-08-07T12:31:11;2.85;;;0.85;;
80510;SDS011;69840;53.040;8.600;2023-08-07T12:35:23;3.63;;;0.90;;
80510;SDS011;69840;53.040;8.600;2023-08-07T12:39:36;5.70;;;1.02;;
80510;SDS011;69840;53.040;8.600;2023-08-07T12:43:51;5.80;;;1.95;;
80510;SDS011;69840;53.040;8.600;2023-08-07T12:48:04;2.33;;;0.88;;
80510;SDS011;69840;53.040;8.600;2023-08-07T12:52:16;3.45;;;1.00;;
80510;SDS011;69840;53.040;8.600;2023-08-07T12:56:29;4.55;;;1.25;;
80510;SDS011;69840;53.040;8.600;2023-08-07T13:00:41;3.05;;;1.52;;
80510;SDS011;69840;53.040;8.600;2023-08-07T13:04:54;4.82;;;1.15;;
80510;SDS011;69840;53.040;8.600;2023-08-07T13:09:07;5.93;;;1.85;;
80510;SDS011;69840;53.040;8.600;2023-08-07T13:13:20;2.78;;;1.25;;
80510;SDS011;69840;53.040;8.600;2023-08-07T13:17:33;5.97;;;1.38;;
80510;SDS011;69840;53.040;8.600;2023-08-07T13:21:46;9.30;;;1.48;;
80510;SDS011;69840;53.040;8.600;2023-08-07T13:25:58;5.85;;;1.38;;
80510;SDS011;69840;53.040;8.600;2023-08-07T13:30:11;5.40;;;1.45;;
80510;SDS011;69840;53.040;8.600;2023-08-07T13:34:23;2.35;;;1.70;;
80510;SDS011;69840;53.040;8.600;2023-08-07T13:38:36;4.28;;;0.85;;
80510;SDS011;69840;53.040;8.600;2023-08-07T13:42:48;6.47;;;1.23;;
80510;SDS011;69840;53.040;8.600;2023-08-07T13:47:01;2.75;;;1.02;;
80510;SDS011;69840;53.040;8.600;2023-08-07T13:51:13;4.90;;;0.93;;
80510;SDS011;69840;53.040;8.600;2023-08-07T13:55:26;1.80;;;1.13;;
80510;SDS011;69840;53.040;8.600;2023-08-07T13:59:39;2.47;;;1.05;;
80510;SDS011;69840;53.040;8.600;2023-08-07T14:03:51;10.80;;;1.63;;
80510;SDS011;69840;53.040;8.600;2023-08-07T14:08:04;5.00;;;0.88;;
80510;SDS011;69840;53.040;8.600;2023-08-07T14:12:16;3.70;;;1.02;;
80510;SDS011;69840;53.040;8.600;2023-08-07T14:16:29;5.15;;;0.95;;
80510;SDS011;69840;53.040;8.600;2023-08-07T14:20:41;4.25;;;1.40;;
80510;SDS011;69840;53.040;8.600;2023-08-07T14:25:02;3.33;;;0.98;;
80510;SDS011;69840;53.040;8.600;2023-08-07T14:29:15;3.42;;;1.48;;
80510;SDS011;69840;53.040;8.600;2023-08-07T14:33:28;5.80;;;1.13;;
80510;SDS011;69840;53.040;8.600;2023-08-07T14:37:40;4.97;;;1.63;;
80510;SDS011;69840;53.040;8.600;2023-08-07T14:41:53;6.30;;;1.05;;
80510;SDS011;69840;53.040;8.600;2023-08-07T14:46:05;4.00;;;0.95;;
80510;SDS011;69840;53.040;8.600;2023-08-07T14:50:18;3.88;;;1.20;;
80510;SDS011;69840;53.040;8.600;2023-08-07T14:54:30;4.78;;;1.13;;
80510;SDS011;69840;53.040;8.600;2023-08-07T14:58:43;2.42;;;1.15;;
80510;SDS011;69840;53.040;8.600;2023-08-07T15:02:56;4.13;;;0.88;;
80510;SDS011;69840;53.040;8.600;2023-08-07T15:07:09;4.50;;;1.02;;
80510;SDS011;69840;53.040;8.600;2023-08-07T15:11:22;4.80;;;0.95;;
80510;SDS011;69840;53.040;8.600;2023-08-07T15:15:34;3.83;;;1.08;;
80510;SDS011;69840;53.040;8.600;2023-08-07T15:19:47;6.07;;;1.40;;
80510;SDS011;69840;53.040;8.600;2023-08-07T15:24:00;3.13;;;0.85;;
80510;SDS011;69840;53.040;8.600;2023-08-07T15:28:12;2.97;;;1.05;;
80510;SDS011;69840;53.040;8.600;2023-08-07T15:32:25;6.63;;;1.25;;
80510;SDS011;69840;53.040;8.600;2023-08-07T15:36:37;7.30;;;2.35;;
80510;SDS011;69840;53.040;8.600;2023-08-07T15:40:50;3.47;;;1.63;;
80510;SDS011;69840;53.040;8.600;2023-08-07T15:45:03;6.63;;;1.60;;
80510;SDS011;69840;53.040;8.600;2023-08-07T15:49:16;5.47;;;1.70;;
80510;SDS011;69840;53.040;8.600;2023-08-07T15:53:29;5.13;;;1.30;;
80510;SDS011;69840;53.040;8.600;2023-08-07T15:57:41;3.00;;;0.95;;
80510;SDS011;69840;53.040;8.600;2023-08-07T16:01:54;7.25;;;1.70;;
80510;SDS011;69840;53.040;8.600;2023-08-07T16:06:06;6.35;;;1.58;;
80510;SDS011;69840;53.040;8.600;2023-08-07T16:10:19;2.35;;;1.10;;
80510;SDS011;69840;53.040;8.600;2023-08-07T16:14:31;5.35;;;1.52;;
80510;SDS011;69840;53.040;8.600;2023-08-07T16:18:46;7.38;;;2.00;;
80510;SDS011;69840;53.040;8.600;2023-08-07T16:22:59;5.57;;;1.27;;
80510;SDS011;69840;53.040;8.600;2023-08-07T16:27:11;12.93;;;1.70;;
80510;SDS011;69840;53.040;8.600;2023-08-07T16:31:24;8.82;;;1.60;;
80510;SDS011;69840;53.040;8.600;2023-08-07T16:35:36;4.53;;;1.48;;
80510;SDS011;69840;53.040;8.600;2023-08-07T16:39:49;4.53;;;1.85;;
80510;SDS011;69840;53.040;8.600;2023-08-07T16:44:01;2.67;;;1.00;;
80510;SDS011;69840;53.040;8.600;2023-08-07T16:48:14;3.35;;;1.33;;
80510;SDS011;69840;53.040;8.600;2023-08-07T16:52:26;3.08;;;1.58;;
80510;SDS011;69840;53.040;8.600;2023-08-07T16:56:39;4.18;;;0.90;;
80510;SDS011;69840;53.040;8.600;2023-08-07T17:00:52;3.15;;;1.17;;
80510;SDS011;69840;53.040;8.600;2023-08-07T17:05:04;11.68;;;1.48;;
80510;SDS011;69840;53.040;8.600;2023-08-07T17:09:17;4.18;;;1.15;;
80510;SDS011;69840;53.040;8.600;2023-08-07T17:13:30;9.80;;;1.27;;
80510;SDS011;69840;53.040;8.600;2023-08-07T17:17:43;2.05;;;1.05;;
80510;SDS011;69840;53.040;8.600;2023-08-07T17:21:56;2.67;;;0.95;;
80510;SDS011;69840;53.040;8.600;2023-08-07T17:26:08;3.33;;;1.08;;
80510;SDS011;69840;53.040;8.600;2023-08-07T17:30:21;4.75;;;1.50;;
80510;SDS011;69840;53.040;8.600;2023-08-07T17:34:33;5.75;;;1.13;;
80510;SDS011;69840;53.040;8.600;2023-08-07T17:38:47;3.88;;;0.95;;
80510;SDS011;69840;53.040;8.600;2023-08-07T17:42:59;4.40;;;1.10;;
80510;SDS011;69840;53.040;8.600;2023-08-07T17:47:12;6.45;;;1.02;;
80510;SDS011;69840;53.040;8.600;2023-08-07T17:51:24;3.88;;;1.05;;
80510;SDS011;69840;53.040;8.600;2023-08-07T17:55:37;3.47;;;1.00;;
80510;SDS011;69840;53.040;8.600;2023-08-07T17:59:49;8.05;;;1.70;;
80510;SDS011;69840;53.040;8.600;2023-08-07T18:04:02;3.50;;;1.23;;
80510;SDS011;69840;53.040;8.600;2023-08-07T18:08:14;2.35;;;1.33;;
80510;SDS011;69840;53.040;8.600;2023-08-07T18:12:27;4.53;;;1.27;;
80510;SDS011;69840;53.040;8.600;2023-08-07T18:16:40;2.00;;;0.80;;
80510;SDS011;69840;53.040;8.600;2023-08-07T18:20:52;2.50;;;0.88;;
80510;SDS011;69840;53.040;8.600;2023-08-07T18:25:05;1.73;;;0.70;;
80510;SDS011;69840;53.040;8.600;2023-08-07T18:29:18;7.20;;;0.82;;
80510;SDS011;69840;53.040;8.600;2023-08-07T18:33:30;8.50;;;1.13;;
80510;SDS011;69840;53.040;8.600;2023-08-07T18:37:42;2.72;;;0.77;;
80510;SDS011;69840;53.040;8.600;2023-08-07T18:41:55;5.60;;;1.02;;
80510;SDS011;69840;53.040;8.600;2023-08-07T18:46:08;2.35;;;1.17;;
80510;SDS011;69840;53.040;8.600;2023-08-07T18:50:20;8.85;;;1.55;;
80510;SDS011;69840;53.040;8.600;2023-08-07T18:54:33;2.55;;;0.73;;
80510;SDS011;69840;53.040;8.600;2023-08-07T18:58:45;7.40;;;1.73;;
80510;SDS011;69840;53.040;8.600;2023-08-07T19:02:58;2.17;;;0.63;;
80510;SDS011;69840;53.040;8.600;2023-08-07T19:07:11;5.28;;;0.85;;
80510;SDS011;69840;53.040;8.600;2023-08-07T19:11:23;6.65;;;1.98;;
80510;SDS011;69840;53.040;8.600;2023-08-07T19:15:36;2.85;;;1.02;;
80510;SDS011;69840;53.040;8.600;2023-08-07T19:19:48;2.88;;;0.82;;
80510;SDS011;69840;53.040;8.600;2023-08-07T19:24:01;4.70;;;1.25;;
80510;SDS011;69840;53.040;8.600;2023-08-07T19:28:13;1.52;;;0.82;;
80510;SDS011;69840;53.040;8.600;2023-08-07T19:32:26;3.50;;;0.93;;
80510;SDS011;69840;53.040;8.600;2023-08-07T19:36:38;2.33;;;1.27;;
80510;SDS011;69840;53.040;8.600;2023-08-07T19:40:52;4.82;;;0.93;;
80510;SDS011;69840;53.040;8.600;2023-08-07T19:45:04;4.93;;;0.93;;
80510;SDS011;69840;53.040;8.600;2023-08-07T19:49:17;3.80;;;0.88;;
80510;SDS011;69840;53.040;8.600;2023-08-07T19:53:30;4.70;;;0.95;;
80510;SDS011;69840;53.040;8.600;2023-08-07T19:57:43;4.63;;;0.93;;
80510;SDS011;69840;53.040;8.600;2023-08-07T20:01:55;1.88;;;0.65;;
80510;SDS011;69840;53.040;8.600;2023-08-07T20:06:08;4.18;;;1.13;;
80510;SDS011;69840;53.040;8.600;2023-08-07T20:10:20;7.03;;;1.45;;
80510;SDS011;69840;53.040;8.600;2023-08-07T20:14:33;4.43;;;1.50;;
80510;SDS011;69840;53.040;8.600;2023-08-07T20:18:46;2.60;;;0.82;;
80510;SDS011;69840;53.040;8.600;2023-08-07T20:22:59;2.90;;;0.75;;
80510;SDS011;69840;53.040;8.600;2023-08-07T20:27:12;5.63;;;0.77;;
80510;SDS011;69840;53.040;8.600;2023-08-07T20:31:24;1.48;;;0.77;;
80510;SDS011;69840;53.040;8.600;2023-08-07T20:35:36;4.93;;;1.15;;
80510;SDS011;69840;53.040;8.600;2023-08-07T20:39:49;5.07;;;1.15;;
80510;SDS011;69840;53.040;8.600;2023-08-07T20:44:02;1.42;;;0.70;;
80510;SDS011;69840;53.040;8.600;2023-08-07T20:48:15;1.70;;;1.48;;
80510;SDS011;69840;53.040;8.600;2023-08-07T20:52:28;2.05;;;0.68;;
80510;SDS011;69840;53.040;8.600;2023-08-07T20:56:40;4.40;;;0.82;;
80510;SDS011;69840;53.040;8.600;2023-08-07T21:00:53;2.70;;;0.77;;
80510;SDS011;69840;53.040;8.600;2023-08-07T21:05:05;3.92;;;1.23;;
80510;SDS011;69840;53.040;8.600;2023-08-07T21:09:18;3.83;;;1.20;;
80510;SDS011;69840;53.040;8.600;2023-08-07T21:13:31;2.78;;;1.00;;
80510;SDS011;69840;53.040;8.600;2023-08-07T21:17:44;3.05;;;0.70;;
80510;SDS011;69840;53.040;8.600;2023-08-07T21:21:56;5.03;;;1.65;;
80510;SDS011;69840;53.040;8.600;2023-08-07T21:26:09;3.92;;;1.10;;
80510;SDS011;69840;53.040;8.600;2023-08-07T21:30:21;6.47;;;0.88;;
80510;SDS011;69840;53.040;8.600;2023-08-07T21:34:34;5.03;;;1.05;;
80510;SDS011;69840;53.040;8.600;2023-08-07T21:38:46;4.25;;;1.02;;
80510;SDS011;69840;53.040;8.600;2023-08-07T21:42:59;2.58;;;1.10;;
80510;SDS011;69840;53.040;8.600;2023-08-07T21:47:11;2.63;;;1.10;;
80510;SDS011;69840;53.040;8.600;2023-08-07T21:51:24;3.17;;;1.02;;
80510;SDS011;69840;53.040;8.600;2023-08-07T21:55:36;2.05;;;0.98;;
80510;SDS011;69840;53.040;8.600;2023-08-07T21:59:49;12.45;;;1.67;;
80510;SDS011;69840;53.040;8.600;2023-08-07T22:04:01;4.60;;;1.13;;
80510;SDS011;69840;53.040;8.600;2023-08-07T22:08:14;2.58;;;1.58;;
80510;SDS011;69840;53.040;8.600;2023-08-07T22:12:27;3.38;;;1.17;;
80510;SDS011;69840;53.040;8.600;2023-08-07T22:16:40;3.95;;;0.90;;
80510;SDS011;69840;53.040;8.600;2023-08-07T22:20:52;3.05;;;1.13;;
80510;SDS011;69840;53.040;8.600;2023-08-07T22:25:05;1.30;;;0.88;;
80510;SDS011;69840;53.040;8.600;2023-08-07T22:29:17;1.98;;;1.05;;
80510;SDS011;69840;53.040;8.600;2023-08-07T22:33:30;5.03;;;1.55;;
80510;SDS011;69840;53.040;8.600;2023-08-07T22:37:43;3.13;;;1.02;;
80510;SDS011;69840;53.040;8.600;2023-08-07T22:41:55;3.78;;;1.27;;
80510;SDS011;69840;53.040;8.600;2023-08-07T22:46:08;2.67;;;1.30;;
80510;SDS011;69840;53.040;8.600;2023-08-07T22:50:20;2.67;;;1.13;;
80510;SDS011;69840;53.040;8.600;2023-08-07T22:54:33;2.38;;;1.02;;
80510;SDS011;69840;53.040;8.600;2023-08-07T22:58:45;6.72;;;1.80;;
80510;SDS011;69840;53.040;8.600;2023-08-07T23:02:58;6.22;;;1.58;;
80510;SDS011;69840;53.040;8.600;2023-08-07T23:07:10;2.92;;;0.90;;
80510;SDS011;69840;53.040;8.600;2023-08-07T23:11:23;2.60;;;1.42;;
80510;SDS011;69840;53.040;8.600;2023-08-07T23:15:35;0.93;;;0.77;;
80510;SDS011;69840;53.040;8.600;2023-08-07T23:19:48;2.75;;;1.15;;
80510;SDS011;69840;53.040;8.600;2023-08-07T23:24:00;5.97;;;1.42;;
80510;SDS011;69840;53.040;8.600;2023-08-07T23:28:13;4.18;;;1.20;;
80510;SDS011;69840;53.040;8.600;2023-08-07T23:32:25;11.15;;;1.80;;
80510;SDS011;69840;53.040;8.600;2023-08-07T23:36:38;3.72;;;1.27;;
80510;SDS011;69840;53.040;8.600;2023-08-07T23:40:50;4.20;;;0.85;;
80510;SDS011;69840;53.040;8.600;2023-08-07T23:45:03;1.75;;;0.85;;
80510;SDS011;69840;53.040;8.600;2023-08-07T23:49:16;7.72;;;2.10;;
80510;SDS011;69840;53.040;8.600;2023-08-07T23:53:29;2.30;;;1.27;;
80510;SDS011;69840;53.040;8.600;2023-08-07T23:57:41;4.93;;;1.25;;
